createdAt,value
2018-11-26T00:01:13.041Z,31.53
2018-11-26T00:03:43.232Z,31.37
2018-11-26T00:06:13.504Z,27.37
2018-11-26T00:08:44.270Z,28.60
2018-11-26T00:11:46.614Z,28.47
2018-11-26T00:14:16.737Z,25.93
2018-11-26T00:16:46.769Z,27.10
2018-11-26T00:19:17.868Z,26.80
2018-11-26T00:21:49.125Z,26.80
2018-11-26T00:24:19.034Z,27.37
2018-11-26T00:26:49.152Z,27.40
2018-11-26T00:29:19.465Z,26.30
2018-11-26T00:31:49.492Z,24.83
2018-11-26T00:34:19.609Z,26.37
2018-11-26T00:36:49.376Z,25.63
2018-11-26T00:39:19.679Z,24.90
2018-11-26T00:41:49.973Z,26.67
2018-11-26T00:44:19.628Z,25.03
2018-11-26T00:46:49.629Z,25.33
2018-11-26T00:49:19.581Z,25.60
2018-11-26T00:51:50.907Z,24.30
2018-11-26T00:54:20.857Z,23.50
2018-11-26T00:56:50.921Z,25.23
2018-11-26T00:59:21.154Z,24.83
2018-11-26T01:01:51.568Z,22.67
2018-11-26T01:04:21.216Z,23.57
2018-11-26T01:06:51.341Z,23.77
2018-11-26T01:09:21.660Z,22.23
2018-11-26T01:11:51.841Z,22.43
2018-11-26T01:14:21.912Z,22.10
2018-11-26T01:16:52.304Z,22.50
2018-11-26T01:19:22.081Z,21.63
2018-11-26T01:21:52.363Z,24.43
2018-11-26T01:24:22.531Z,24.10
2018-11-26T01:26:52.384Z,24.00
2018-11-26T01:29:22.169Z,22.03
2018-11-26T01:31:52.305Z,21.03
2018-11-26T01:34:21.940Z,23.60
2018-11-26T01:36:52.473Z,22.43
2018-11-26T01:39:22.202Z,21.33
2018-11-26T01:41:52.497Z,22.93
2018-11-26T01:44:22.773Z,23.17
2018-11-26T01:46:52.600Z,22.73
2018-11-26T01:49:22.843Z,23.60
2018-11-26T01:51:52.685Z,22.23
2018-11-26T01:54:22.501Z,23.30
2018-11-26T01:56:52.765Z,23.17
2018-11-26T01:59:22.936Z,23.67
2018-11-26T02:01:53.074Z,22.33
2018-11-26T02:04:23.148Z,21.80
2018-11-26T02:06:52.931Z,23.40
2018-11-26T02:09:22.752Z,23.87
2018-11-26T02:11:53.028Z,22.63
2018-11-26T02:14:23.858Z,25.20
2018-11-26T02:16:54.161Z,23.00
2018-11-26T02:19:24.261Z,23.33
2018-11-26T02:21:54.185Z,23.67
2018-11-26T02:24:24.154Z,22.30
2018-11-26T02:26:53.876Z,24.27
2018-11-26T02:29:24.790Z,24.23
2018-11-26T02:31:55.108Z,24.83
2018-11-26T02:34:25.323Z,22.57
2018-11-26T02:36:54.989Z,23.10
2018-11-26T02:39:25.063Z,22.90
2018-11-26T02:41:55.008Z,23.50
2018-11-26T02:44:24.966Z,24.43
2018-11-26T02:46:55.400Z,24.27
2018-11-26T02:50:44.079Z,24.20
2018-11-26T02:53:14.131Z,23.73
2018-11-26T02:55:44.455Z,25.23
2018-11-26T02:58:14.540Z,27.50
2018-11-26T03:00:47.023Z,25.47
2018-11-26T03:03:17.290Z,27.53
2018-11-26T03:05:47.675Z,25.60
2018-11-26T03:08:17.854Z,26.80
2018-11-26T03:10:48.124Z,24.37
2018-11-26T03:13:18.273Z,27.57
2018-11-26T03:15:48.400Z,25.17
2018-11-26T03:18:18.217Z,24.43
2018-11-26T03:20:48.564Z,24.93
2018-11-26T03:23:18.525Z,26.10
2018-11-26T03:25:48.301Z,26.87
2018-11-26T03:28:18.815Z,27.07
2018-11-26T03:30:48.626Z,26.73
2018-11-26T03:33:18.552Z,27.50
2018-11-26T03:35:49.071Z,28.10
2018-11-26T03:38:28.302Z,27.83
2018-11-26T03:40:58.171Z,26.47
2018-11-26T03:43:28.547Z,29.13
2018-11-26T03:45:58.222Z,27.83
2018-11-26T03:48:27.904Z,27.87
2018-11-26T03:50:57.874Z,25.80
2018-11-26T03:53:28.332Z,26.27
2018-11-26T03:55:58.241Z,27.70
2018-11-26T03:58:28.380Z,26.40
2018-11-26T04:00:58.343Z,27.17
2018-11-26T04:03:28.604Z,26.87
2018-11-26T04:05:58.515Z,26.70
2018-11-26T04:08:28.534Z,25.10
2018-11-26T04:10:58.651Z,25.97
2018-11-26T04:13:29.000Z,26.60
2018-11-26T04:15:58.999Z,27.80
2018-11-26T04:18:28.956Z,27.27
2018-11-26T04:20:59.253Z,28.47
2018-11-26T04:23:29.321Z,30.07
2018-11-26T04:25:59.284Z,27.60
2018-11-26T04:28:29.748Z,26.03
2018-11-26T04:31:00.068Z,25.93
2018-11-26T04:33:30.157Z,26.77
2018-11-26T04:36:00.183Z,26.53
2018-11-26T04:38:30.095Z,26.67
2018-11-26T04:41:00.654Z,26.97
2018-11-26T04:43:31.100Z,27.03
2018-11-26T04:46:01.251Z,27.77
2018-11-26T04:48:31.170Z,28.13
2018-11-26T04:51:02.052Z,27.23
2018-11-26T04:53:31.918Z,26.80
2018-11-26T04:56:01.850Z,27.47
2018-11-26T04:58:32.118Z,27.30
2018-11-26T05:01:02.392Z,27.23
2018-11-26T05:03:32.776Z,29.00
2018-11-26T05:06:02.805Z,26.23
2018-11-26T05:08:32.465Z,26.73
2018-11-26T05:11:02.432Z,27.00
2018-11-26T05:13:32.736Z,25.13
2018-11-26T05:16:02.691Z,26.70
2018-11-26T05:18:32.708Z,25.93
2018-11-26T05:21:02.917Z,25.23
2018-11-26T05:23:32.862Z,24.77
2018-11-26T05:26:02.633Z,24.03
2018-11-26T05:28:32.774Z,24.03
2018-11-26T05:31:03.978Z,25.33
2018-11-26T05:33:34.052Z,23.83
2018-11-26T05:36:03.982Z,31.27
2018-11-26T05:38:34.177Z,25.50
2018-11-26T05:41:04.012Z,24.30
2018-11-26T05:43:33.837Z,24.47
2018-11-26T05:46:04.024Z,22.90
2018-11-26T05:48:34.003Z,23.90
2018-11-26T05:51:04.026Z,23.03
2018-11-26T05:53:34.529Z,23.03
2018-11-26T05:56:04.544Z,22.13
2018-11-26T05:58:34.892Z,20.67
2018-11-26T06:01:04.976Z,26.70
2018-11-26T06:03:34.783Z,23.87
2018-11-26T06:06:05.117Z,22.07
2018-11-26T06:08:35.041Z,21.60
2018-11-26T06:11:05.041Z,20.33
2018-11-26T06:13:34.729Z,20.83
2018-11-26T06:16:04.438Z,19.93
2018-11-26T06:18:34.678Z,17.83
2018-11-26T06:21:04.337Z,18.57
2018-11-26T06:23:34.796Z,19.33
2018-11-26T06:26:05.092Z,17.93
2018-11-26T06:28:34.877Z,17.73
2018-11-26T06:31:04.992Z,17.07
2018-11-26T06:33:34.961Z,16.27
2018-11-26T06:36:05.465Z,17.10
2018-11-26T06:38:35.388Z,15.53
2018-11-26T06:41:05.171Z,16.03
2018-11-26T06:43:34.800Z,15.40
2018-11-26T06:46:05.112Z,14.57
2018-11-26T06:48:35.312Z,14.83
2018-11-26T06:51:05.929Z,14.03
2018-11-26T06:53:36.632Z,14.27
2018-11-26T06:56:07.165Z,12.97
2018-11-26T06:58:36.822Z,13.87
2018-11-26T07:01:06.497Z,13.83
2018-11-26T07:03:36.203Z,13.63
2018-11-26T07:06:06.780Z,14.70
2018-11-26T07:08:36.481Z,14.43
2018-11-26T07:11:06.453Z,14.00
2018-11-26T07:13:36.605Z,14.57
2018-11-26T07:16:07.105Z,14.43
2018-11-26T07:18:37.266Z,14.63
2018-11-26T07:21:07.626Z,14.57
2018-11-26T07:23:37.565Z,14.00
2018-11-26T07:26:07.601Z,13.17
2018-11-26T07:28:37.423Z,13.10
2018-11-26T07:31:07.817Z,13.30
2018-11-26T07:33:38.449Z,11.80
2018-11-26T07:36:11.404Z,13.97
2018-11-26T07:38:39.954Z,12.23
2018-11-26T07:41:08.947Z,13.47
2018-11-26T07:43:38.692Z,12.33
2018-11-26T07:46:08.614Z,12.23
2018-11-26T07:48:38.374Z,13.20
2018-11-26T07:51:08.451Z,13.87
2018-11-26T07:53:38.241Z,12.33
2018-11-26T07:56:07.978Z,13.33
2018-11-26T07:58:38.035Z,12.07
2018-11-26T08:01:08.092Z,12.33
2018-11-26T08:03:37.772Z,13.13
2018-11-26T08:06:08.921Z,14.07
2018-11-26T08:08:37.394Z,11.50
2018-11-26T08:11:08.704Z,12.50
2018-11-26T08:13:38.483Z,13.43
2018-11-26T08:16:08.298Z,13.37
2018-11-26T08:18:38.434Z,13.87
2018-11-26T08:21:08.394Z,14.33
2018-11-26T08:23:38.457Z,13.90
2018-11-26T08:26:08.963Z,12.27
2018-11-26T08:28:38.672Z,12.07
2018-11-26T08:31:08.463Z,12.73
2018-11-26T08:33:38.585Z,14.10
2018-11-26T08:36:15.129Z,10.37
2018-11-26T08:38:48.267Z,9.80
2018-11-26T08:41:19.272Z,10.37
2018-11-26T08:43:53.964Z,8.90
2018-11-26T08:46:29.222Z,8.80
2018-11-26T08:49:02.857Z,8.70
2018-11-26T08:51:32.785Z,8.10
2018-11-26T08:54:02.770Z,8.23
2018-11-26T08:56:32.496Z,8.73
2018-11-26T08:59:02.408Z,8.40
2018-11-26T09:01:39.654Z,8.13
2018-11-26T09:04:15.455Z,8.70
2018-11-26T09:06:45.362Z,8.83
2018-11-26T09:09:15.085Z,7.97
2018-11-26T09:11:44.758Z,8.13
2018-11-26T09:14:14.712Z,7.97
2018-11-26T09:16:44.678Z,7.83
2018-11-26T09:19:14.372Z,8.47
2018-11-26T09:21:44.130Z,8.27
2018-11-26T09:24:13.916Z,9.20
2018-11-26T09:26:43.833Z,9.20
2018-11-26T09:29:13.805Z,8.37
2018-11-26T09:31:43.594Z,7.67
2018-11-26T09:34:13.264Z,8.50
2018-11-26T09:36:43.261Z,7.83
2018-11-26T09:39:13.060Z,8.17
2018-11-26T09:41:42.742Z,7.93
2018-11-26T09:44:13.437Z,7.97
2018-11-26T09:46:43.399Z,7.83
2018-11-26T09:49:13.116Z,8.13
2018-11-26T09:51:43.056Z,8.70
2018-11-26T09:54:12.777Z,7.60
2018-11-26T09:56:42.821Z,7.30
2018-11-26T09:59:12.720Z,8.87
2018-11-26T10:01:42.392Z,7.63
2018-11-26T10:04:12.031Z,7.90
2018-11-26T10:06:41.749Z,7.43
2018-11-26T10:09:11.685Z,7.90
2018-11-26T10:11:41.669Z,7.40
2018-11-26T10:14:11.604Z,6.83
2018-11-26T10:16:41.237Z,7.07
2018-11-26T10:19:11.170Z,7.60
2018-11-26T10:21:41.161Z,7.10
2018-11-26T10:24:10.797Z,7.23
2018-11-26T10:26:40.760Z,6.73
2018-11-26T10:29:10.836Z,6.27
2018-11-26T10:31:40.756Z,6.50
2018-11-26T10:34:10.741Z,7.53
2018-11-26T10:36:41.159Z,7.07
2018-11-26T10:39:11.093Z,5.80
2018-11-26T10:41:41.057Z,5.67
2018-11-26T10:44:10.762Z,6.00
2018-11-26T10:46:40.654Z,5.43
2018-11-26T10:49:11.164Z,5.50
2018-11-26T10:51:40.832Z,5.60
2018-11-26T10:54:10.850Z,5.43
2018-11-26T10:56:40.582Z,5.17
2018-11-26T10:59:10.519Z,5.23
2018-11-26T11:01:44.760Z,6.10
2018-11-26T11:04:15.020Z,5.43
2018-11-26T11:06:44.715Z,5.27
2018-11-26T11:09:14.361Z,4.60
2018-11-26T11:11:44.402Z,4.80
2018-11-26T11:14:14.207Z,5.00
2018-11-26T11:16:43.971Z,4.30
2018-11-26T11:19:14.097Z,4.37
2018-11-26T11:21:43.824Z,4.43
2018-11-26T11:24:13.670Z,4.67
2018-11-26T11:26:43.829Z,4.10
2018-11-26T11:29:13.480Z,3.83
2018-11-26T11:31:43.494Z,4.07
2018-11-26T11:34:13.166Z,4.37
2018-11-26T11:36:43.746Z,3.90
2018-11-26T11:39:13.425Z,3.60
2018-11-26T11:41:43.098Z,3.53
2018-11-26T11:44:13.175Z,3.80
2018-11-26T11:46:43.111Z,3.83
2018-11-26T11:49:12.774Z,3.87
2018-11-26T11:51:42.595Z,3.50
2018-11-26T11:54:12.674Z,3.40
2018-11-26T11:56:42.668Z,3.40
2018-11-26T11:59:12.306Z,3.00
2018-11-26T12:01:41.979Z,2.60
2018-11-26T12:04:11.934Z,2.60
2018-11-26T12:06:41.602Z,2.40
2018-11-26T12:09:11.598Z,2.70
2018-11-26T12:11:41.294Z,2.60
2018-11-26T12:14:11.319Z,2.47
2018-11-26T12:16:41.677Z,2.33
2018-11-26T12:19:11.394Z,2.27
2018-11-26T12:21:45.265Z,2.50
2018-11-26T12:24:15.545Z,2.33
2018-11-26T12:26:45.462Z,1.93
2018-11-26T12:29:15.202Z,2.17
2018-11-26T12:31:45.140Z,2.10
2018-11-26T12:34:15.074Z,3.90
2018-11-26T12:36:44.770Z,2.77
2018-11-26T12:39:14.485Z,2.03
2018-11-26T12:41:44.447Z,2.40
2018-11-26T12:44:14.125Z,2.20
2018-11-26T12:46:43.815Z,1.87
2018-11-26T12:49:13.791Z,1.90
2018-11-26T12:51:43.499Z,2.60
2018-11-26T12:54:13.691Z,1.90
2018-11-26T12:56:43.876Z,2.27
2018-11-26T12:59:13.600Z,2.00
2018-11-26T13:01:43.251Z,1.50
2018-11-26T13:04:12.994Z,1.80
2018-11-26T13:06:42.910Z,1.50
2018-11-26T13:09:12.879Z,1.60
2018-11-26T13:11:43.395Z,1.80
2018-11-26T13:14:13.410Z,1.70
2018-11-26T13:16:43.086Z,2.00
2018-11-26T13:19:13.062Z,1.80
2018-11-26T13:21:42.722Z,1.80
2018-11-26T13:24:12.400Z,1.67
2018-11-26T13:26:47.030Z,1.50
2018-11-26T13:29:17.517Z,2.13
2018-11-26T13:31:48.300Z,28.57
2018-11-26T13:34:18.551Z,3.43
2018-11-26T13:36:48.237Z,1.47
2018-11-26T13:39:18.432Z,1.97
2018-11-26T13:41:48.874Z,1.90
2018-11-26T13:44:18.862Z,2.70
2018-11-26T13:46:49.320Z,2.43
2018-11-26T13:49:19.432Z,2.23
2018-11-26T13:51:49.668Z,2.00
2018-11-26T13:54:19.727Z,2.40
2018-11-26T13:56:49.971Z,3.40
2018-11-26T13:59:19.631Z,2.20
2018-11-26T14:01:49.393Z,2.10
2018-11-26T14:04:19.299Z,2.00
2018-11-26T14:06:49.026Z,2.30
2018-11-26T14:09:18.986Z,2.20
2018-11-26T14:11:48.937Z,2.30
2018-11-26T14:14:18.733Z,2.60
2018-11-26T14:16:48.524Z,2.63
2018-11-26T14:19:18.467Z,3.00
2018-11-26T14:21:48.156Z,2.40
2018-11-26T14:24:17.824Z,2.13
2018-11-26T14:26:47.845Z,1.90
2018-11-26T14:29:17.759Z,1.97
2018-11-26T14:31:47.433Z,2.17
2018-11-26T14:34:17.473Z,2.03
2018-11-26T14:36:47.139Z,2.10
2018-11-26T14:39:16.878Z,2.13
2018-11-26T14:41:47.105Z,1.93
2018-11-26T14:44:16.902Z,2.30
2018-11-26T14:46:46.882Z,2.30
2018-11-26T14:49:16.822Z,3.17
2018-11-26T14:51:46.538Z,2.70
2018-11-26T14:54:16.422Z,2.90
2018-11-26T14:56:46.424Z,2.40
2018-11-26T14:59:16.166Z,2.87
2018-11-26T15:01:45.903Z,2.20
2018-11-26T15:04:15.851Z,2.30
2018-11-26T15:06:45.538Z,2.10
2018-11-26T15:09:15.492Z,2.73
2018-11-26T15:11:46.021Z,2.40
2018-11-26T15:14:15.803Z,2.27
2018-11-26T15:16:45.486Z,2.30
2018-11-26T15:19:15.527Z,2.30
2018-11-26T15:21:45.191Z,2.60
2018-11-26T15:24:15.138Z,2.50
2018-11-26T15:26:45.187Z,3.03
2018-11-26T15:29:14.836Z,2.30
2018-11-26T15:31:50.133Z,2.53
2018-11-26T15:34:16.341Z,2.57
2018-11-26T15:36:46.647Z,3.10
2018-11-26T15:39:16.417Z,2.77
2018-11-26T15:41:47.885Z,3.23
2018-11-26T15:44:18.733Z,3.27
2018-11-26T15:46:51.136Z,4.27
2018-11-26T15:49:21.566Z,4.37
2018-11-26T15:51:53.440Z,3.70
2018-11-26T15:54:25.824Z,3.60
2018-11-26T15:56:55.860Z,3.30
2018-11-26T15:59:25.943Z,3.03
2018-11-26T16:01:56.008Z,2.70
2018-11-26T16:04:25.950Z,2.80
2018-11-26T16:06:55.925Z,3.40
2018-11-26T16:09:25.762Z,4.50
2018-11-26T16:11:55.796Z,2.77
2018-11-26T16:14:25.782Z,3.30
2018-11-26T16:16:55.567Z,2.70
2018-11-26T16:19:25.732Z,3.13
2018-11-26T16:21:55.888Z,3.10
2018-11-26T16:24:25.988Z,3.23
2018-11-26T16:26:56.107Z,2.80
2018-11-26T16:29:25.880Z,3.80
2018-11-26T16:31:56.398Z,3.20
2018-11-26T16:34:26.414Z,2.80
2018-11-26T16:36:56.082Z,3.27
2018-11-26T16:39:25.838Z,3.50
2018-11-26T16:41:56.057Z,3.57
2018-11-26T16:44:25.779Z,4.43
2018-11-26T16:46:55.507Z,3.80
2018-11-26T16:49:25.523Z,3.50
2018-11-26T16:51:55.243Z,3.90
2018-11-26T16:54:25.008Z,6.17
2018-11-26T16:56:55.002Z,13.03
2018-11-26T16:59:24.707Z,4.47
2018-11-26T17:01:54.497Z,3.30
2018-11-26T17:04:24.748Z,3.10
2018-11-26T17:06:54.447Z,3.40
2018-11-26T17:09:24.151Z,3.40
2018-11-26T17:11:54.106Z,3.17
2018-11-26T17:14:24.018Z,3.40
2018-11-26T17:16:54.613Z,3.67
2018-11-26T17:19:26.814Z,3.90
2018-11-26T17:22:13.544Z,4.57
2018-11-26T17:24:44.071Z,4.80
2018-11-26T17:27:14.618Z,3.50
2018-11-26T17:29:44.314Z,4.07
2018-11-26T17:32:25.162Z,5.97
2018-11-26T17:34:55.676Z,4.53
2018-11-26T17:37:26.037Z,4.03
2018-11-26T17:39:56.037Z,3.87
2018-11-26T17:42:25.846Z,4.40
2018-11-26T17:44:55.799Z,4.17
2018-11-26T17:47:25.518Z,4.20
2018-11-26T17:49:55.174Z,4.37
2018-11-26T17:52:25.318Z,4.93
2018-11-26T17:54:55.500Z,5.97
2018-11-26T17:57:25.235Z,5.63
2018-11-26T17:59:55.267Z,6.33
2018-11-26T18:02:25.115Z,5.10
2018-11-26T18:04:54.919Z,5.20
2018-11-26T18:07:24.909Z,4.83
2018-11-26T18:09:54.648Z,4.60
2018-11-26T18:12:24.416Z,4.10
2018-11-26T18:14:54.503Z,4.13
2018-11-26T18:17:24.299Z,4.17
2018-11-26T18:19:54.020Z,3.93
2018-11-26T18:22:25.010Z,4.07
2018-11-26T18:24:54.722Z,3.80
2018-11-26T18:27:24.654Z,5.00
2018-11-26T18:29:54.632Z,6.33
2018-11-26T18:32:24.325Z,4.83
2018-11-26T18:34:54.021Z,4.40
2018-11-26T18:37:23.989Z,4.60
2018-11-26T18:39:53.664Z,3.70
2018-11-26T18:42:23.706Z,8.30
2018-11-26T18:44:53.710Z,4.83
2018-11-26T18:47:23.494Z,4.27
2018-11-26T18:49:53.406Z,8.23
2018-11-26T18:52:23.387Z,6.23
2018-11-26T18:54:53.175Z,8.00
2018-11-26T18:57:22.911Z,4.20
2018-11-26T18:59:53.081Z,4.23
2018-11-26T19:02:22.807Z,4.30
2018-11-26T19:04:52.585Z,4.83
2018-11-26T19:07:23.296Z,4.10
2018-11-26T19:09:53.635Z,3.87
2018-11-26T19:12:23.642Z,4.10
2018-11-26T19:14:53.359Z,3.93
2018-11-26T19:17:23.974Z,4.00
2018-11-26T19:19:54.070Z,4.13
2018-11-26T19:22:23.908Z,4.17
2018-11-26T19:24:53.646Z,4.10
2018-11-26T19:27:23.835Z,4.17
2018-11-26T19:29:53.538Z,4.10
2018-11-26T19:32:23.840Z,4.20
2018-11-26T19:34:53.838Z,4.13
2018-11-26T19:37:24.393Z,4.23
2018-11-26T19:39:54.837Z,4.53
2018-11-26T19:42:24.786Z,4.50
2018-11-26T19:44:54.517Z,5.43
2018-11-26T19:47:24.674Z,5.50
2018-11-26T19:49:54.817Z,4.47
2018-11-26T19:52:24.583Z,4.27
2018-11-26T19:54:54.255Z,4.37
2018-11-26T19:57:24.566Z,5.53
2018-11-26T19:59:54.276Z,7.67
2018-11-26T20:02:23.994Z,13.77
2018-11-26T20:04:58.642Z,5.00
2018-11-26T20:07:29.967Z,5.53
2018-11-26T20:10:00.231Z,4.13
2018-11-26T20:12:30.268Z,4.73
2018-11-26T20:15:01.339Z,4.40
2018-11-26T20:17:31.460Z,4.17
2018-11-26T20:20:01.755Z,4.67
2018-11-26T20:22:31.538Z,4.53
2018-11-26T20:25:01.721Z,5.40
2018-11-26T20:27:32.321Z,6.20
2018-11-26T20:30:02.280Z,5.00
2018-11-26T20:32:32.373Z,4.53
2018-11-26T20:35:03.503Z,5.30
2018-11-26T20:37:33.408Z,5.40
2018-11-26T20:40:03.130Z,5.37
2018-11-26T20:42:33.083Z,5.63
2018-11-26T20:45:02.878Z,5.43
2018-11-26T20:47:35.359Z,4.70
2018-11-26T20:50:05.982Z,5.10
2018-11-26T20:52:36.074Z,5.70
2018-11-26T20:55:06.461Z,6.57
2018-11-26T20:57:36.503Z,7.23
2018-11-26T21:00:12.424Z,7.97
2018-11-26T21:02:42.416Z,7.50
2018-11-26T21:05:13.470Z,7.70
2018-11-26T21:07:44.073Z,7.90
2018-11-26T21:10:15.225Z,7.80
2018-11-26T21:12:45.222Z,7.23
2018-11-26T21:15:16.126Z,7.80
2018-11-26T21:17:53.227Z,8.77
2018-11-26T21:20:28.327Z,8.40
2018-11-26T21:22:59.098Z,8.70
2018-11-26T21:25:29.237Z,9.53
2018-11-26T21:27:59.254Z,9.00
2018-11-26T21:30:29.749Z,11.70
2018-11-26T21:32:59.881Z,17.87
2018-11-26T21:35:29.773Z,13.53
2018-11-26T21:37:59.600Z,10.43
2018-11-26T21:40:30.341Z,13.67
2018-11-26T21:43:00.696Z,11.27
2018-11-26T21:45:32.840Z,12.10
2018-11-26T21:48:03.148Z,11.30
2018-11-26T21:50:35.103Z,11.70
2018-11-26T21:53:05.457Z,10.80
2018-11-26T21:55:36.197Z,12.37
2018-11-26T21:58:07.024Z,12.83
2018-11-26T22:00:37.302Z,11.97
2018-11-26T22:03:11.295Z,12.53
2018-11-26T22:05:42.968Z,12.50
2018-11-26T22:08:13.789Z,12.87
2018-11-26T22:10:44.859Z,13.60
2018-11-26T22:13:16.648Z,17.03
2018-11-26T22:15:46.442Z,14.40
2018-11-26T22:18:16.230Z,13.33
2018-11-26T22:20:46.566Z,13.77
2018-11-26T22:23:16.375Z,14.10
2018-11-26T22:25:46.194Z,14.57
2018-11-26T22:28:16.412Z,15.97
2018-11-26T22:30:46.665Z,17.27
2018-11-26T22:33:16.852Z,15.97
2018-11-26T22:35:47.480Z,15.80
2018-11-26T22:38:17.800Z,16.23
2018-11-26T22:40:47.523Z,22.43
2018-11-26T22:43:18.161Z,16.90
2018-11-26T22:45:48.572Z,15.80
2018-11-26T22:48:18.543Z,15.80
2018-11-26T22:50:48.774Z,16.07
2018-11-26T22:53:18.733Z,15.87
2018-11-26T22:55:49.139Z,15.60
2018-11-26T22:58:19.193Z,16.27
2018-11-26T23:00:55.597Z,15.70
2018-11-26T23:03:26.485Z,14.93
2018-11-26T23:06:00.551Z,17.17
2018-11-26T23:08:31.049Z,15.93
2018-11-26T23:11:01.162Z,15.73
2018-11-26T23:13:31.481Z,15.07
2018-11-26T23:16:01.863Z,16.70
2018-11-26T23:18:31.887Z,16.00
2018-11-26T23:21:02.902Z,15.40
2018-11-26T23:23:33.126Z,15.33
2018-11-26T23:26:03.620Z,15.67
2018-11-26T23:28:34.382Z,14.90
2018-11-26T23:31:04.340Z,14.83
2018-11-26T23:33:34.125Z,18.27
2018-11-26T23:36:04.766Z,16.97
2018-11-26T23:38:34.745Z,16.80
2018-11-26T23:41:04.519Z,18.13
2018-11-26T23:43:34.654Z,17.57
2018-11-26T23:46:04.562Z,17.00
2018-11-26T23:48:34.803Z,15.33
2018-11-26T23:51:04.934Z,15.67
2018-11-26T23:53:34.897Z,15.33
2018-11-26T23:56:04.876Z,16.13
2018-11-26T23:58:35.107Z,16.77
